Terminal Aerodrome Forecast
Issued by NWS

Home | Current Version | Previous Version | Text Only | Print | Product List | Glossary On
Versions: 1 2 3 4 5 6 7 8 9 10 11 12 13
000
FTUS43 KBIS 062300
TAFJMS
TAF
KJMS 062330Z 0700/0724 28014KT P6SM BKN045 OVC070
     FM070600 30015G24KT P6SM BKN020 OVC035
     FM071700 28009KT P6SM SCT020 BKN035=

USA.gov is the U.S. government's official web portal to all federal, state and local government web resources and services.